65IL weather

Teubel Restricted Landing Area
Dunlap, Illinois, United States

Public forecast

Using degrees Fahrenheit for public forecast. Weather courtesy of forecast.io.

METAR (pilot weather report)

Closest report is General Wayne A. Downing Peoria International Airport, 13.0 nm (24.1 km) S. Retrieved 2019/06/20 04:37 UTC (4 minutes ago):

KPIA 200437Z 08019G25KT 10SM -RA SCT009 BKN034 OVC055 17/14 A2961

TAF (pilot weather forecast)

Closest forecast is General Wayne A. Downing Peoria International Airport, 13.0 nm (24.1 km) S. Retrieved 2019/06/20 01:00 UTC (4 hours ago):

TAF KPIA 200058Z 2001/2024 07008KT 4SM -RA BR OVC020 TEMPO 2001/2005 1 1/2SM TSRA BR OVC015CB FM200500 03010KT 5SM SHRA BR OVC020 FM200700 03013KT P6SM VCSH OVC020 FM201100 34009KT P6SM BKN010 FM201700 33007KT P6SM SCT030